createdAt,value
2023-08-11T00:00:41.183Z,15.01
2023-08-11T00:02:42.691Z,15.00
2023-08-11T00:04:44.118Z,14.98
2023-08-11T00:06:45.942Z,14.95
2023-08-11T00:08:47.494Z,14.93
2023-08-11T00:10:48.945Z,14.92
2023-08-11T00:12:50.535Z,14.91
2023-08-11T00:14:53.737Z,14.92
2023-08-11T00:16:55.212Z,14.92
2023-08-11T00:18:56.831Z,14.92
2023-08-11T00:21:01.016Z,14.89
2023-08-11T00:23:02.457Z,14.86
2023-08-11T00:25:04.218Z,14.83
2023-08-11T00:27:06.376Z,14.82
2023-08-11T00:29:08.034Z,14.78
2023-08-11T00:31:09.494Z,14.75
2023-08-11T00:33:11.555Z,14.74
2023-08-11T00:35:13.337Z,14.71
2023-08-11T00:37:15.286Z,14.70
2023-08-11T00:39:16.899Z,14.70
2023-08-11T00:41:18.474Z,14.70
2023-08-11T00:43:19.962Z,14.70
2023-08-11T00:45:21.577Z,14.67
2023-08-11T00:47:23.166Z,14.67
2023-08-11T00:49:25.004Z,14.64
2023-08-11T00:51:27.075Z,14.61
2023-08-11T00:53:28.639Z,14.62
2023-08-11T00:55:30.543Z,14.63
2023-08-11T00:57:32.527Z,14.61
2023-08-11T00:59:34.033Z,14.61
2023-08-11T01:01:36.689Z,14.60
2023-08-11T01:03:38.147Z,14.59
2023-08-11T01:05:45.738Z,14.58
2023-08-11T01:08:13.427Z,14.56
2023-08-11T01:10:34.305Z,14.55
2023-08-11T01:13:26.909Z,14.55
2023-08-11T01:15:33.971Z,14.56
2023-08-11T01:17:37.368Z,14.57
2023-08-11T01:19:39.150Z,14.53
2023-08-11T01:21:41.936Z,14.50
2023-08-11T01:23:43.529Z,14.52
2023-08-11T01:25:45.578Z,14.52
2023-08-11T01:27:53.775Z,14.52
2023-08-11T01:29:55.331Z,14.52
2023-08-11T01:31:56.871Z,14.50
2023-08-11T01:33:58.355Z,14.47
2023-08-11T01:35:59.793Z,14.49
2023-08-11T01:38:01.221Z,14.45
2023-08-11T01:42:32.346Z,14.42
2023-08-11T01:44:37.496Z,14.38
2023-08-11T01:46:39.723Z,14.41
2023-08-11T01:48:41.941Z,14.39
2023-08-11T01:50:43.787Z,14.37
2023-08-11T01:52:48.723Z,14.37
2023-08-11T01:54:50.414Z,14.35
2023-08-11T01:56:52.146Z,14.36
2023-08-11T01:58:53.616Z,14.33
2023-08-11T02:00:55.065Z,14.32
2023-08-11T02:02:58.564Z,14.27
2023-08-11T02:05:00.217Z,14.28
2023-08-11T02:07:01.658Z,14.25
2023-08-11T02:09:05.595Z,14.23
2023-08-11T02:11:07.234Z,14.22
2023-08-11T02:13:08.802Z,14.21
2023-08-11T02:17:39.069Z,14.18
2023-08-11T02:19:40.740Z,14.18
2023-08-11T02:21:43.266Z,14.17
2023-08-11T02:23:44.849Z,14.15
2023-08-11T02:25:46.357Z,14.14
2023-08-11T02:27:48.200Z,14.13
2023-08-11T02:29:50.520Z,14.11
2023-08-11T02:31:52.212Z,14.09
2023-08-11T02:33:53.725Z,14.09
2023-08-11T02:35:55.169Z,14.08
2023-08-11T02:37:56.662Z,14.07
2023-08-11T02:39:58.134Z,14.04
2023-08-11T02:41:59.610Z,14.06
2023-08-11T02:44:01.300Z,14.04
2023-08-11T02:46:02.775Z,14.02
2023-08-11T02:48:04.564Z,14.02
2023-08-11T02:50:06.617Z,14.02
2023-08-11T02:52:08.761Z,14.01
2023-08-11T02:54:10.435Z,14.00
2023-08-11T02:56:16.300Z,13.99
2023-08-11T02:58:17.864Z,13.98
2023-08-11T03:00:19.406Z,13.96
2023-08-11T03:02:20.948Z,13.96
2023-08-11T03:04:22.450Z,13.97
2023-08-11T03:06:23.889Z,13.95
2023-08-11T03:08:25.556Z,13.95
2023-08-11T03:10:27.221Z,13.97
2023-08-11T03:12:31.793Z,13.94
2023-08-11T03:14:33.436Z,13.93
2023-08-11T03:16:34.971Z,13.93
2023-08-11T03:18:36.562Z,13.90
2023-08-11T03:20:38.099Z,13.90
2023-08-11T03:22:43.617Z,13.92
2023-08-11T03:24:45.916Z,13.89
2023-08-11T03:26:47.377Z,13.90
2023-08-11T03:28:48.829Z,13.89
2023-08-11T03:30:50.266Z,13.89
2023-08-11T03:32:52.749Z,13.87
2023-08-11T03:34:54.498Z,13.84
2023-08-11T03:36:55.930Z,13.83
2023-08-11T03:38:57.370Z,13.81
2023-08-11T03:40:58.937Z,13.82
2023-08-11T03:43:00.422Z,13.80
2023-08-11T03:45:02.065Z,13.79
2023-08-11T03:47:03.592Z,13.79
2023-08-11T03:49:07.781Z,13.76
2023-08-11T03:51:09.960Z,13.75
2023-08-11T03:53:11.407Z,13.73
2023-08-11T03:55:13.541Z,13.73
2023-08-11T03:57:15.640Z,13.73
2023-08-11T03:59:17.110Z,13.70
2023-08-11T04:01:19.044Z,13.71
2023-08-11T04:03:20.761Z,13.71
2023-08-11T04:05:22.564Z,13.70
2023-08-11T04:07:24.008Z,13.68
2023-08-11T04:09:25.444Z,13.68
2023-08-11T04:11:28.056Z,13.68
2023-08-11T04:13:29.596Z,13.67
2023-08-11T04:15:32.359Z,13.68
2023-08-11T04:17:34.975Z,13.68
2023-08-11T04:19:36.610Z,13.69
2023-08-11T04:21:40.319Z,13.68
2023-08-11T04:23:41.948Z,13.68
2023-08-11T04:25:46.334Z,13.71
2023-08-11T04:27:47.823Z,13.72
2023-08-11T04:29:49.252Z,13.72
2023-08-11T04:31:50.719Z,13.74
2023-08-11T04:33:52.160Z,13.76
2023-08-11T04:35:54.175Z,13.80
2023-08-11T04:37:55.717Z,13.83
2023-08-11T04:39:57.388Z,13.86
2023-08-11T04:41:58.886Z,13.89
2023-08-11T04:44:00.616Z,13.93
2023-08-11T04:46:02.122Z,13.99
2023-08-11T04:48:03.877Z,14.02
2023-08-11T04:50:05.909Z,14.05
2023-08-11T04:52:07.509Z,14.07
2023-08-11T04:54:09.180Z,14.11
2023-08-11T04:56:10.675Z,14.13
2023-08-11T04:58:12.313Z,14.16
2023-08-11T05:00:18.048Z,14.24
2023-08-11T05:02:19.873Z,14.32
2023-08-11T05:04:22.015Z,14.36
2023-08-11T05:06:23.503Z,14.39
2023-08-11T05:08:25.041Z,14.45
2023-08-11T05:10:26.588Z,14.49
2023-08-11T05:12:28.023Z,14.52
2023-08-11T05:14:29.527Z,14.54
2023-08-11T05:16:31.073Z,14.57
2023-08-11T05:18:42.083Z,14.59
2023-08-11T05:20:47.675Z,14.66
2023-08-11T05:22:49.134Z,14.68
2023-08-11T05:24:50.694Z,14.71
2023-08-11T05:26:52.148Z,14.75
2023-08-11T05:28:53.574Z,14.83
2023-08-11T05:30:57.238Z,14.86
2023-08-11T05:32:59.207Z,14.88
2023-08-11T05:35:00.965Z,14.93
2023-08-11T05:37:04.386Z,14.97
2023-08-11T05:39:07.871Z,14.99
2023-08-11T05:41:10.201Z,15.04
2023-08-11T05:43:11.693Z,15.02
2023-08-11T05:45:14.922Z,15.13
2023-08-11T05:47:17.762Z,15.17
2023-08-11T05:49:19.176Z,15.24
2023-08-11T05:51:20.661Z,15.30
2023-08-11T05:53:22.090Z,15.37
2023-08-11T05:55:23.923Z,15.44
2023-08-11T05:57:25.525Z,15.50
2023-08-11T05:59:27.437Z,15.57
2023-08-11T06:01:29.012Z,15.62
2023-08-11T06:03:33.358Z,15.69
2023-08-11T06:05:34.879Z,15.75
2023-08-11T06:07:36.353Z,15.82
2023-08-11T06:09:37.928Z,15.88
2023-08-11T06:11:39.505Z,15.94
2023-08-11T06:13:41.190Z,16.00
2023-08-11T06:15:42.725Z,16.06
2023-08-11T06:17:45.045Z,16.14
2023-08-11T06:19:46.569Z,16.21
2023-08-11T06:21:48.034Z,16.29
2023-08-11T06:23:49.494Z,16.37
2023-08-11T06:25:50.938Z,16.41
2023-08-11T06:27:52.364Z,16.39
2023-08-11T06:29:53.826Z,16.45
2023-08-11T06:31:55.307Z,16.56
2023-08-11T06:33:56.954Z,16.66
2023-08-11T06:35:58.454Z,16.77
2023-08-11T06:38:00.574Z,16.87
2023-08-11T06:40:02.388Z,16.93
2023-08-11T06:42:03.965Z,17.01
2023-08-11T06:44:06.495Z,17.06
2023-08-11T06:46:08.147Z,17.15
2023-08-11T06:48:09.732Z,17.23
2023-08-11T06:50:11.266Z,17.28
2023-08-11T06:52:12.795Z,17.37
2023-08-11T06:54:14.403Z,17.48
2023-08-11T06:56:15.917Z,17.55
2023-08-11T06:58:17.369Z,17.60
2023-08-11T07:00:18.940Z,17.68
2023-08-11T07:02:20.524Z,17.76
2023-08-11T07:04:22.098Z,17.83
2023-08-11T07:06:23.583Z,17.95
2023-08-11T07:08:25.156Z,18.02
2023-08-11T07:10:26.860Z,18.11
2023-08-11T07:12:28.350Z,18.07
2023-08-11T07:14:29.768Z,18.16
2023-08-11T07:16:31.295Z,18.20
2023-08-11T07:18:32.825Z,18.26
2023-08-11T07:20:34.264Z,18.38
2023-08-11T07:22:35.700Z,18.43
2023-08-11T07:24:37.248Z,18.54
2023-08-11T07:26:38.788Z,18.60
2023-08-11T07:28:41.259Z,18.70
2023-08-11T07:30:42.867Z,18.78
2023-08-11T07:32:44.373Z,18.91
2023-08-11T07:34:45.868Z,18.93
2023-08-11T07:36:47.376Z,19.11
2023-08-11T07:38:49.032Z,19.17
2023-08-11T07:40:50.844Z,19.22
2023-08-11T07:42:52.317Z,19.35
2023-08-11T07:44:53.827Z,19.42
2023-08-11T07:46:55.302Z,19.49
2023-08-11T07:48:56.802Z,19.52
2023-08-11T07:50:58.311Z,19.59
2023-08-11T07:52:59.769Z,19.69
2023-08-11T07:55:01.306Z,19.78
2023-08-11T07:57:02.946Z,19.94
2023-08-11T07:59:04.543Z,20.01
2023-08-11T08:01:07.696Z,20.16
2023-08-11T08:03:09.171Z,20.22
2023-08-11T08:05:13.485Z,20.34
2023-08-11T08:07:15.258Z,20.43
2023-08-11T08:09:16.842Z,20.47
2023-08-11T08:11:18.409Z,20.52
2023-08-11T08:13:19.875Z,20.59
2023-08-11T08:15:21.409Z,20.58
2023-08-11T08:17:22.865Z,20.75
2023-08-11T08:19:24.284Z,20.85
2023-08-11T08:21:25.762Z,20.92
2023-08-11T08:23:27.255Z,20.97
2023-08-11T08:25:28.894Z,21.05
2023-08-11T08:27:31.266Z,21.16
2023-08-11T08:29:35.148Z,21.26
2023-08-11T08:31:37.168Z,21.29
2023-08-11T08:33:38.647Z,21.41
2023-08-11T08:35:40.177Z,21.53
2023-08-11T08:37:42.033Z,21.59
2023-08-11T08:39:44.966Z,21.69
2023-08-11T08:41:48.409Z,21.69
2023-08-11T08:43:51.763Z,21.85
2023-08-11T08:45:54.222Z,21.86
2023-08-11T08:47:58.402Z,22.03
2023-08-11T08:50:01.683Z,21.99
2023-08-11T08:52:05.974Z,22.23
2023-08-11T08:54:10.994Z,22.29
2023-08-11T08:56:13.684Z,22.36
2023-08-11T08:58:17.094Z,22.47
2023-08-11T09:00:19.749Z,22.47
2023-08-11T09:02:22.423Z,22.56
2023-08-11T09:04:24.050Z,22.73
2023-08-11T09:06:27.617Z,22.73
2023-08-11T09:08:32.399Z,22.79
2023-08-11T09:10:37.576Z,22.94
2023-08-11T09:12:39.119Z,22.93
2023-08-11T09:14:42.974Z,22.98
2023-08-11T09:16:44.447Z,23.13
2023-08-11T09:18:46.091Z,23.18
2023-08-11T09:20:49.608Z,23.20
2023-08-11T09:22:51.071Z,23.39
2023-08-11T09:24:54.918Z,23.45
2023-08-11T09:26:59.360Z,23.43
2023-08-11T09:29:00.846Z,23.40
2023-08-11T09:31:02.527Z,23.42
2023-08-11T09:33:04.934Z,23.58
2023-08-11T09:35:10.535Z,23.70
2023-08-11T09:37:12.146Z,23.80
2023-08-11T09:39:14.905Z,23.95
2023-08-11T09:41:17.748Z,23.89
2023-08-11T09:43:19.237Z,23.88
2023-08-11T09:45:20.695Z,23.96
2023-08-11T09:47:23.032Z,24.10
2023-08-11T09:49:24.794Z,24.13
2023-08-11T09:51:26.344Z,24.15
2023-08-11T09:53:28.434Z,24.28
2023-08-11T09:55:32.693Z,24.34
2023-08-11T09:57:44.853Z,24.35
2023-08-11T09:59:48.477Z,24.42
2023-08-11T10:01:55.062Z,24.37
2023-08-11T10:03:58.660Z,24.45
2023-08-11T10:06:03.697Z,24.67
2023-08-11T10:08:07.387Z,24.71
2023-08-11T10:10:19.457Z,24.79
2023-08-11T10:12:22.030Z,24.70
2023-08-11T10:14:26.707Z,24.71
2023-08-11T10:16:29.150Z,24.80
2023-08-11T10:18:32.510Z,24.90
2023-08-11T10:20:34.555Z,24.81
2023-08-11T10:22:36.046Z,25.07
2023-08-11T10:24:38.836Z,24.99
2023-08-11T10:26:41.394Z,25.10
2023-08-11T10:28:43.072Z,25.18
2023-08-11T10:30:44.652Z,25.29
2023-08-11T10:32:46.225Z,25.11
2023-08-11T10:34:47.707Z,25.35
2023-08-11T10:36:49.215Z,25.47
2023-08-11T10:39:08.662Z,25.50
2023-08-11T10:41:11.465Z,25.64
2023-08-11T10:43:17.464Z,25.78
2023-08-11T10:45:22.279Z,25.73
2023-08-11T10:47:23.742Z,25.82
2023-08-11T10:49:35.627Z,25.84
2023-08-11T10:51:39.098Z,25.73
2023-08-11T10:53:40.945Z,25.77
2023-08-11T10:55:42.402Z,25.86
2023-08-11T10:57:43.870Z,26.01
2023-08-11T10:59:45.414Z,26.04
2023-08-11T11:01:48.535Z,25.94
2023-08-11T11:03:50.756Z,25.95
2023-08-11T11:05:52.832Z,25.94
2023-08-11T11:07:54.716Z,26.15
2023-08-11T11:09:56.185Z,26.08
2023-08-11T11:11:57.806Z,26.24
2023-08-11T11:13:59.591Z,26.23
2023-08-11T11:16:01.089Z,25.94
2023-08-11T11:18:02.757Z,26.14
2023-08-11T11:20:04.661Z,26.34
2023-08-11T11:22:08.522Z,26.46
2023-08-11T11:24:11.169Z,26.50
2023-08-11T11:26:22.462Z,26.35
2023-08-11T11:28:24.011Z,26.61
2023-08-11T11:30:25.493Z,26.78
2023-08-11T11:32:27.877Z,26.71
2023-08-11T11:34:29.403Z,26.81
2023-08-11T11:36:31.378Z,26.86
2023-08-11T11:38:32.967Z,26.95
2023-08-11T11:40:34.439Z,26.92
2023-08-11T11:42:39.288Z,26.94
2023-08-11T11:44:43.437Z,27.19
2023-08-11T11:46:46.164Z,27.13
2023-08-11T11:48:54.950Z,27.22
2023-08-11T11:50:57.390Z,27.07
2023-08-11T11:52:58.896Z,27.25
2023-08-11T11:55:04.789Z,27.47
2023-08-11T11:57:08.255Z,27.21
2023-08-11T11:59:11.590Z,27.34
2023-08-11T12:01:16.178Z,27.23
2023-08-11T12:03:17.859Z,27.50
2023-08-11T12:05:19.481Z,27.42
2023-08-11T12:07:34.421Z,27.47
2023-08-11T12:09:54.838Z,27.71
2023-08-11T12:11:56.730Z,27.73
2023-08-11T12:14:00.631Z,27.93
2023-08-11T12:16:03.107Z,27.96
2023-08-11T12:18:05.992Z,28.02
2023-08-11T12:20:11.359Z,28.03
2023-08-11T12:22:12.945Z,28.10
2023-08-11T12:24:17.204Z,27.99
2023-08-11T12:26:18.658Z,27.96
2023-08-11T12:28:21.108Z,27.98
2023-08-11T12:30:22.599Z,28.17
2023-08-11T12:32:24.110Z,28.08
2023-08-11T12:34:25.553Z,28.14
2023-08-11T12:36:26.970Z,27.99
2023-08-11T12:38:28.486Z,28.01
2023-08-11T12:40:31.241Z,28.25
2023-08-11T12:42:32.657Z,28.25
2023-08-11T12:44:34.133Z,28.17
2023-08-11T12:46:37.257Z,28.34
2023-08-11T12:48:38.830Z,28.53
2023-08-11T12:50:41.457Z,28.51
2023-08-11T12:52:42.889Z,28.61
2023-08-11T12:54:44.327Z,28.56
2023-08-11T12:56:46.275Z,28.59
2023-08-11T12:58:47.987Z,28.55
2023-08-11T13:00:49.395Z,28.60
2023-08-11T13:02:50.943Z,28.73
2023-08-11T13:04:52.516Z,28.84
2023-08-11T13:06:53.950Z,28.99
2023-08-11T13:08:55.635Z,29.06
2023-08-11T13:10:57.096Z,28.98
2023-08-11T13:12:58.623Z,28.78
2023-08-11T13:15:00.127Z,28.84
2023-08-11T13:17:01.612Z,29.18
2023-08-11T13:19:03.935Z,29.20
2023-08-11T13:21:06.342Z,29.34
2023-08-11T13:23:08.186Z,29.00
2023-08-11T13:25:10.910Z,29.19
2023-08-11T13:27:12.857Z,29.26
2023-08-11T13:29:14.365Z,29.31
2023-08-11T13:31:15.860Z,29.44
2023-08-11T13:33:17.370Z,29.55
2023-08-11T13:35:18.925Z,29.39
2023-08-11T13:37:20.409Z,29.53
2023-08-11T13:39:22.286Z,29.39
2023-08-11T13:41:23.860Z,29.50
2023-08-11T13:43:26.238Z,29.73
2023-08-11T13:45:27.787Z,29.62
2023-08-11T13:47:29.312Z,29.87
2023-08-11T13:49:30.791Z,29.75
2023-08-11T13:51:33.616Z,30.07
2023-08-11T13:53:35.112Z,30.10
2023-08-11T13:55:36.781Z,30.17
2023-08-11T13:57:38.258Z,30.27
2023-08-11T13:59:39.782Z,30.08
2023-08-11T14:01:41.222Z,30.19
2023-08-11T14:03:42.685Z,30.43
2023-08-11T14:05:44.208Z,30.46
2023-08-11T14:07:49.617Z,30.62
2023-08-11T14:09:51.414Z,30.78
2023-08-11T14:11:56.201Z,30.58
2023-08-11T14:13:57.919Z,30.59
2023-08-11T14:15:59.465Z,30.41
2023-08-11T14:18:01.035Z,30.60
2023-08-11T14:20:02.508Z,30.77
2023-08-11T14:22:03.982Z,30.70
2023-08-11T14:24:06.028Z,30.83
2023-08-11T14:26:08.379Z,30.72
2023-08-11T14:28:09.837Z,30.83
2023-08-11T14:30:12.092Z,30.97
2023-08-11T14:32:23.187Z,31.14
2023-08-11T14:34:26.717Z,31.34
2023-08-11T14:36:28.159Z,31.24
2023-08-11T14:38:29.623Z,31.39
2023-08-11T14:40:31.032Z,31.33
2023-08-11T14:42:32.500Z,31.44
2023-08-11T14:44:33.907Z,31.64
2023-08-11T14:46:35.378Z,31.48
2023-08-11T14:48:36.871Z,31.71
2023-08-11T14:50:38.341Z,31.57
2023-08-11T14:52:39.753Z,31.59
2023-08-11T14:54:41.257Z,31.64
2023-08-11T14:56:42.984Z,31.57
2023-08-11T14:58:46.642Z,31.51
2023-08-11T15:00:48.864Z,31.96
2023-08-11T15:02:50.410Z,33.07
2023-08-11T15:04:52.846Z,33.25
2023-08-11T15:06:54.310Z,33.30
2023-08-11T15:08:55.773Z,33.04
2023-08-11T15:10:57.344Z,33.04
2023-08-11T15:13:00.713Z,33.17
2023-08-11T15:15:02.188Z,32.46
2023-08-11T15:17:03.862Z,32.31
2023-08-11T15:19:05.359Z,33.21
2023-08-11T15:21:07.666Z,34.00
2023-08-11T15:23:09.159Z,33.41
2023-08-11T15:25:10.674Z,32.82
2023-08-11T15:27:14.034Z,33.73
2023-08-11T15:29:15.577Z,34.46
2023-08-11T15:31:17.754Z,34.58
2023-08-11T15:33:19.249Z,35.05
2023-08-11T15:35:20.863Z,35.99
2023-08-11T15:37:22.320Z,36.64
2023-08-11T15:39:23.940Z,36.97
2023-08-11T15:41:25.392Z,36.36
2023-08-11T15:43:26.861Z,37.44
2023-08-11T15:45:29.110Z,38.79
2023-08-11T15:47:30.594Z,40.40
2023-08-11T15:49:32.024Z,41.48
2023-08-11T15:51:33.578Z,41.54
2023-08-11T15:53:35.042Z,41.07
2023-08-11T15:55:37.115Z,39.96
2023-08-11T15:57:38.661Z,38.53
2023-08-11T15:59:40.196Z,38.95
2023-08-11T16:01:44.285Z,40.04
2023-08-11T16:03:57.389Z,43.02
2023-08-11T16:05:59.823Z,46.22
2023-08-11T16:08:01.362Z,45.02
2023-08-11T16:10:03.147Z,47.18
2023-08-11T16:12:05.070Z,47.86
2023-08-11T16:14:06.543Z,49.25
2023-08-11T16:16:09.719Z,48.46
2023-08-11T16:18:11.872Z,48.77
2023-08-11T16:20:13.490Z,43.52
2023-08-11T16:22:15.022Z,43.03
2023-08-11T16:24:16.601Z,42.34
2023-08-11T16:26:18.038Z,44.58
2023-08-11T16:28:19.510Z,44.88
2023-08-11T16:30:21.100Z,42.52
2023-08-11T16:32:22.596Z,46.41
2023-08-11T16:34:24.955Z,48.08
2023-08-11T16:36:26.523Z,44.37
2023-08-11T16:38:28.019Z,47.49
2023-08-11T16:40:30.904Z,48.38
2023-08-11T16:42:32.382Z,45.83
2023-08-11T16:44:33.814Z,45.10
2023-08-11T16:46:35.261Z,41.90
2023-08-11T16:48:36.795Z,40.11
2023-08-11T16:50:38.790Z,41.47
2023-08-11T16:52:40.303Z,43.81
2023-08-11T16:54:41.781Z,44.95
2023-08-11T16:56:43.299Z,42.54
2023-08-11T16:58:44.741Z,39.19
2023-08-11T17:00:48.293Z,41.78
2023-08-11T17:02:52.254Z,40.61
2023-08-11T17:04:53.778Z,40.70
2023-08-11T17:06:55.214Z,42.47
2023-08-11T17:08:56.700Z,42.23
2023-08-11T17:10:58.346Z,40.97
2023-08-11T17:12:59.819Z,39.77
2023-08-11T17:15:01.330Z,36.92
2023-08-11T17:17:02.876Z,35.46
2023-08-11T17:19:04.559Z,34.81
2023-08-11T17:21:06.067Z,34.04
2023-08-11T17:23:07.608Z,33.55
2023-08-11T17:25:09.373Z,32.92
2023-08-11T17:27:10.880Z,32.18
2023-08-11T17:29:12.449Z,31.99
2023-08-11T17:31:14.252Z,31.78
2023-08-11T17:33:15.781Z,31.34
2023-08-11T17:35:17.345Z,31.34
2023-08-11T17:37:18.763Z,30.99
2023-08-11T17:39:21.360Z,30.69
2023-08-11T17:41:25.262Z,30.35
2023-08-11T17:43:26.870Z,30.27
2023-08-11T17:45:28.526Z,30.12
2023-08-11T17:47:30.007Z,29.91
2023-08-11T17:49:31.594Z,29.76
2023-08-11T17:51:33.100Z,29.71
2023-08-11T17:53:34.589Z,29.44
2023-08-11T17:55:36.067Z,29.35
2023-08-11T17:57:37.527Z,29.14
2023-08-11T17:59:39.365Z,28.94
2023-08-11T18:01:41.056Z,28.64
2023-08-11T18:03:42.628Z,28.41
2023-08-11T18:05:44.413Z,28.30
2023-08-11T18:07:45.948Z,28.03
2023-08-11T18:09:47.379Z,27.84
2023-08-11T18:11:48.873Z,27.66
2023-08-11T18:13:50.330Z,27.59
2023-08-11T18:15:51.800Z,27.39
2023-08-11T18:17:54.731Z,27.18
2023-08-11T18:19:56.380Z,27.06
2023-08-11T18:21:57.931Z,26.96
2023-08-11T18:23:59.478Z,27.00
2023-08-11T18:26:00.915Z,26.87
2023-08-11T18:28:02.433Z,26.76
2023-08-11T18:30:05.051Z,26.59
2023-08-11T18:32:06.694Z,26.52
2023-08-11T18:34:08.137Z,26.44
2023-08-11T18:36:09.764Z,26.31
2023-08-11T18:38:11.169Z,26.21
2023-08-11T18:40:12.794Z,26.14
2023-08-11T18:42:14.387Z,26.01
2023-08-11T18:44:18.921Z,25.84
2023-08-11T18:46:20.454Z,25.79
2023-08-11T18:48:21.911Z,25.79
2023-08-11T18:50:23.486Z,25.74
2023-08-11T18:52:24.955Z,25.63
2023-08-11T18:54:26.629Z,25.56
2023-08-11T18:56:28.135Z,25.48
2023-08-11T18:58:29.587Z,25.37
2023-08-11T19:00:31.072Z,25.33
2023-08-11T19:02:32.540Z,25.28
2023-08-11T19:04:34.166Z,25.16
2023-08-11T19:06:38.385Z,25.10
2023-08-11T19:08:39.878Z,25.02
2023-08-11T19:10:41.355Z,24.95
2023-08-11T19:12:42.816Z,24.79
2023-08-11T19:14:44.545Z,24.70
2023-08-11T19:16:46.032Z,24.61
2023-08-11T19:18:48.132Z,24.47
2023-08-11T19:20:49.832Z,24.38
2023-08-11T19:22:51.282Z,24.34
2023-08-11T19:24:52.734Z,24.29
2023-08-11T19:26:54.147Z,24.26
2023-08-11T19:28:56.392Z,24.24
2023-08-11T19:31:00.660Z,24.13
2023-08-11T19:33:02.618Z,24.09
2023-08-11T19:35:05.998Z,24.07
2023-08-11T19:37:08.006Z,24.03
2023-08-11T19:39:09.948Z,24.01
2023-08-11T19:41:11.933Z,23.97
2023-08-11T19:43:14.458Z,23.87
2023-08-11T19:45:15.903Z,23.81
2023-08-11T19:47:17.493Z,23.75
2023-08-11T19:49:21.543Z,23.74
2023-08-11T19:51:23.762Z,23.66
2023-08-11T19:53:25.344Z,23.57
2023-08-11T19:55:26.958Z,23.51
2023-08-11T19:57:28.444Z,23.47
2023-08-11T19:59:29.983Z,23.39
2023-08-11T20:01:31.879Z,23.40
2023-08-11T20:03:33.414Z,23.33
2023-08-11T20:05:41.816Z,23.32
2023-08-11T20:07:43.315Z,23.30
2023-08-11T20:09:44.761Z,23.24
2023-08-11T20:11:46.211Z,23.25
2023-08-11T20:13:47.696Z,23.22
2023-08-11T20:15:49.229Z,23.16
2023-08-11T20:17:50.776Z,23.11
2023-08-11T20:19:52.275Z,23.09
2023-08-11T20:21:53.928Z,23.09
2023-08-11T20:23:55.426Z,23.04
2023-08-11T20:25:56.914Z,23.05
2023-08-11T20:27:59.165Z,23.03
2023-08-11T20:30:00.649Z,23.04
2023-08-11T20:32:04.420Z,22.95
2023-08-11T20:34:06.625Z,22.88
2023-08-11T20:36:08.153Z,22.87
2023-08-11T20:38:09.573Z,22.90
2023-08-11T20:40:11.490Z,22.87
2023-08-11T20:42:12.959Z,22.82
2023-08-11T20:44:14.414Z,22.76
2023-08-11T20:46:15.881Z,22.69
2023-08-11T20:48:17.745Z,22.64
2023-08-11T20:50:19.304Z,22.68
2023-08-11T20:52:20.830Z,22.55
2023-08-11T20:54:22.768Z,22.49
2023-08-11T20:56:24.289Z,22.47
2023-08-11T20:58:25.811Z,22.39
2023-08-11T21:00:27.234Z,22.34
2023-08-11T21:02:28.918Z,22.33
2023-08-11T21:04:30.520Z,22.31
2023-08-11T21:06:32.232Z,22.21
2023-08-11T21:08:33.809Z,22.22
2023-08-11T21:10:35.843Z,22.18
2023-08-11T21:12:37.300Z,22.17
2023-08-11T21:14:38.796Z,22.13
2023-08-11T21:16:41.061Z,22.07
2023-08-11T21:18:42.604Z,22.07
2023-08-11T21:20:44.161Z,22.10
2023-08-11T21:22:45.603Z,22.11
2023-08-11T21:24:47.083Z,22.10
2023-08-11T21:26:48.600Z,22.10
2023-08-11T21:28:50.313Z,22.08
2023-08-11T21:31:03.841Z,22.05
2023-08-11T21:33:13.492Z,22.06
2023-08-11T21:35:14.988Z,22.07
2023-08-11T21:37:16.440Z,22.10
2023-08-11T21:39:19.150Z,22.16
2023-08-11T21:41:20.603Z,22.16
2023-08-11T21:43:22.442Z,22.16
2023-08-11T21:45:24.060Z,22.16
2023-08-11T21:47:25.681Z,22.15
2023-08-11T21:49:27.119Z,22.12
2023-08-11T21:51:28.596Z,22.05
2023-08-11T21:53:30.188Z,22.06
2023-08-11T21:55:31.674Z,22.05
2023-08-11T21:57:33.565Z,22.03
2023-08-11T21:59:35.063Z,21.97
2023-08-11T22:01:36.527Z,21.94
2023-08-11T22:03:38.003Z,21.92
2023-08-11T22:05:39.734Z,21.89
2023-08-11T22:07:43.590Z,21.85
2023-08-11T22:09:45.161Z,21.84
2023-08-11T22:11:46.660Z,21.85
2023-08-11T22:13:48.145Z,21.85
2023-08-11T22:15:50.833Z,21.82
2023-08-11T22:17:54.550Z,21.77
2023-08-11T22:19:56.220Z,21.87
2023-08-11T22:21:57.979Z,21.85
2023-08-11T22:23:59.446Z,21.84
2023-08-11T22:26:00.886Z,21.82
2023-08-11T22:28:03.003Z,21.75
2023-08-11T22:30:06.088Z,21.72
2023-08-11T22:32:07.725Z,21.78
2023-08-11T22:34:09.242Z,21.79
2023-08-11T22:36:10.683Z,21.80
2023-08-11T22:38:12.654Z,21.87
2023-08-11T22:40:14.186Z,22.00
2023-08-11T22:42:27.884Z,22.01
2023-08-11T22:44:29.403Z,22.04
2023-08-11T22:46:30.878Z,22.01
2023-08-11T22:48:32.473Z,22.07
2023-08-11T22:50:34.038Z,22.06
2023-08-11T22:52:36.028Z,22.00
2023-08-11T22:54:37.620Z,22.10
2023-08-11T22:56:39.117Z,22.10
2023-08-11T22:58:40.559Z,22.03
2023-08-11T23:00:44.840Z,22.08
2023-08-11T23:02:46.334Z,22.03
2023-08-11T23:04:47.898Z,22.05
2023-08-11T23:06:49.347Z,21.93
2023-08-11T23:08:50.803Z,21.94
2023-08-11T23:10:52.299Z,22.01
2023-08-11T23:12:53.781Z,21.97
2023-08-11T23:14:55.349Z,21.81
2023-08-11T23:16:57.771Z,21.77
2023-08-11T23:18:59.762Z,21.88
2023-08-11T23:21:04.129Z,21.80
2023-08-11T23:23:05.613Z,21.86
2023-08-11T23:25:07.441Z,21.76
2023-08-11T23:27:09.331Z,21.66
2023-08-11T23:29:11.104Z,21.59
2023-08-11T23:31:12.636Z,21.78
2023-08-11T23:33:14.145Z,21.75
2023-08-11T23:35:15.768Z,21.81
2023-08-11T23:37:17.212Z,21.84
2023-08-11T23:39:18.975Z,21.75
2023-08-11T23:41:20.506Z,21.82
2023-08-11T23:43:21.975Z,21.86
2023-08-11T23:45:23.753Z,21.77
2023-08-11T23:47:25.707Z,21.73
2023-08-11T23:49:27.183Z,21.73
2023-08-11T23:51:28.737Z,21.66
2023-08-11T23:53:30.166Z,21.58
2023-08-11T23:55:31.665Z,21.46
2023-08-11T23:57:35.266Z,21.45
2023-08-11T23:59:37.135Z,21.31
